Time;durP1;ratioP1;P1;durP2;ratioP2;P2;SDS_P1;SDS_P2;PMS_P1;PMS_P2;Temp;Humidity;BMP_temperature;BMP_pressure;BME280_temperature;BME280_humidity;BME280_pressure;Samples;Min_cycle;Max_cycle;Signal;HPM_P1;HPM_P2
2021/07/10 00:00:40;;;;;;;71.38;44.03;;;;;;;16.15;100.00;101487.66;4962393;28;20523;-80
2021/07/10 00:03:07;;;;;;;66.00;42.35;;;;;;;16.16;100.00;101489.34;4962605;28;20372;-80
2021/07/10 00:05:33;;;;;;;74.60;44.80;;;;;;;16.18;100.00;101490.00;4964198;28;20059;-80
2021/07/10 00:07:59;;;;;;;79.43;47.70;;;;;;;16.20;100.00;101485.25;4960374;28;20042;-80
2021/07/10 00:10:25;;;;;;;75.95;45.33;;;;;;;16.18;100.00;101479.19;4943489;28;20043;-80
2021/07/10 00:12:51;;;;;;;74.43;45.40;;;;;;;16.15;100.00;101479.53;4960716;28;20218;-81
2021/07/10 00:15:19;;;;;;;75.85;45.65;;;;;;;16.13;100.00;101473.47;4948525;28;20046;-80
2021/07/10 00:17:45;;;;;;;67.30;41.08;;;;;;;16.02;100.00;101477.44;4945519;28;20049;-80
2021/07/10 00:20:11;;;;;;;67.28;42.42;;;;;;;15.96;100.00;101473.59;4960217;28;20038;-81
2021/07/10 00:22:37;;;;;;;75.15;44.97;;;;;;;15.91;100.00;101476.03;4944808;28;20046;-80
2021/07/10 00:25:12;;;;;;;67.15;43.00;;;;;;;15.91;100.00;101469.75;4962521;28;20047;-80
2021/07/10 00:27:40;;;;;;;72.30;43.03;;;;;;;15.86;100.00;101469.50;4962511;28;20070;-80
2021/07/10 00:30:06;;;;;;;69.38;42.10;;;;;;;15.78;100.00;101462.28;4947263;28;20488;-80
2021/07/10 00:32:32;;;;;;;69.00;42.63;;;;;;;15.76;100.00;101458.91;4961652;28;20990;-80
2021/07/10 00:34:58;;;;;;;65.43;42.13;;;;;;;15.71;100.00;101464.06;4963829;28;20034;-80
2021/07/10 00:37:23;;;;;;;71.78;44.80;;;;;;;15.67;100.00;101457.28;4939481;28;20038;-80
2021/07/10 00:39:50;;;;;;;73.07;45.20;;;;;;;15.62;100.00;101456.97;4961115;28;20062;-80
2021/07/10 00:42:19;;;;;;;72.10;43.05;;;;;;;15.60;100.00;101454.44;4939609;28;20061;-80
2021/07/10 00:44:46;;;;;;;71.57;42.78;;;;;;;15.53;100.00;101451.63;4945329;28;20400;-80
2021/07/10 00:47:11;;;;;;;78.15;45.78;;;;;;;15.58;100.00;101443.81;4961472;28;20107;-80
2021/07/10 00:49:37;;;;;;;68.00;42.15;;;;;;;15.51;100.00;101450.13;4961761;28;20431;-80
2021/07/10 00:52:04;;;;;;;69.63;42.63;;;;;;;15.49;100.00;101438.66;4948011;28;20117;-80
2021/07/10 00:54:32;;;;;;;68.78;42.67;;;;;;;15.46;100.00;101431.72;4964306;28;21374;-80
2021/07/10 00:56:58;;;;;;;78.03;46.25;;;;;;;15.44;100.00;101427.53;4960325;28;20054;-80
2021/07/10 00:59:27;;;;;;;71.05;44.60;;;;;;;15.41;100.00;101426.00;4960475;28;20522;-80
2021/07/10 01:01:53;;;;;;;65.40;41.17;;;;;;;15.33;100.00;101420.66;4938693;28;20043;-80
2021/07/10 01:04:20;;;;;;;75.30;43.88;;;;;;;15.34;100.00;101425.91;4933867;28;20142;-81
2021/07/10 01:06:47;;;;;;;65.93;41.00;;;;;;;15.25;100.00;101416.19;4962130;28;20129;-80
2021/07/10 01:09:15;;;;;;;63.33;40.17;;;;;;;15.21;100.00;101405.88;4962961;28;20046;-80
2021/07/10 01:11:41;;;;;;;62.97;40.42;;;;;;;15.18;100.00;101414.34;4942303;28;20110;-80
2021/07/10 01:14:07;;;;;;;61.65;39.85;;;;;;;15.15;100.00;101410.16;4962167;28;20042;-80
2021/07/10 01:16:33;;;;;;;63.47;39.88;;;;;;;15.06;100.00;101412.06;4945043;28;20050;-80
2021/07/10 01:18:59;;;;;;;61.58;38.65;;;;;;;15.00;100.00;101401.97;4952340;28;20049;-80
2021/07/10 01:21:24;;;;;;;62.00;39.42;;;;;;;14.96;100.00;101405.19;4961471;28;20625;-80
2021/07/10 01:23:51;;;;;;;56.53;38.58;;;;;;;14.93;100.00;101406.41;4958623;28;20045;-80
2021/07/10 01:26:17;;;;;;;62.53;38.42;;;;;;;14.88;100.00;101409.66;4946579;28;20038;-79
2021/07/10 01:28:43;;;;;;;61.03;40.25;;;;;;;14.87;100.00;101407.09;4943204;28;20085;-80
2021/07/10 01:31:10;;;;;;;70.25;40.47;;;;;;;14.89;100.00;101400.50;4939572;28;20069;-80
2021/07/10 01:33:36;;;;;;;57.17;36.47;;;;;;;14.81;100.00;101403.25;4958939;28;20043;-80
2021/07/10 01:36:02;;;;;;;58.10;37.55;;;;;;;14.75;100.00;101397.72;4950710;28;20072;-80
2021/07/10 01:38:28;;;;;;;50.42;36.63;;;;;;;14.72;100.00;101398.91;4961184;28;20077;-80
2021/07/10 01:40:53;;;;;;;52.22;37.85;;;;;;;14.73;100.00;101397.91;4961617;28;20098;-80
2021/07/10 01:43:19;;;;;;;44.60;35.20;;;;;;;14.70;100.00;101394.72;4942304;28;20545;-81
2021/07/10 01:45:44;;;;;;;47.60;34.28;;;;;;;14.63;100.00;101395.41;4940439;28;20462;-81
2021/07/10 01:48:12;;;;;;;41.95;32.08;;;;;;;14.57;100.00;101390.72;4954139;28;20043;-80
2021/07/10 01:50:39;;;;;;;42.90;32.70;;;;;;;14.58;100.00;101387.00;4962267;28;20046;-81
2021/07/10 01:53:09;;;;;;;42.75;31.38;;;;;;;14.52;100.00;101387.69;4960521;28;20046;-81
2021/07/10 01:55:35;;;;;;;47.65;33.47;;;;;;;14.52;100.00;101393.09;4961121;28;20502;-80
2021/07/10 01:58:02;;;;;;;40.10;30.67;;;;;;;14.49;100.00;101392.59;4944332;28;20173;-80
2021/07/10 02:00:32;;;;;;;40.80;31.48;;;;;;;14.47;100.00;101392.75;4940972;28;20121;-81
2021/07/10 02:02:58;;;;;;;40.90;30.33;;;;;;;14.45;100.00;101397.50;4952800;28;20043;-81
2021/07/10 02:05:26;;;;;;;39.00;30.33;;;;;;;14.43;100.00;101392.25;4944097;28;20061;-81
2021/07/10 02:07:52;;;;;;;37.63;30.20;;;;;;;14.40;100.00;101391.78;4941654;28;20126;-81
2021/07/10 02:10:19;;;;;;;35.50;28.20;;;;;;;14.34;100.00;101395.19;4938945;28;20138;-81
2021/07/10 02:12:53;;;;;;;36.45;28.50;;;;;;;14.35;100.00;101391.44;4941719;28;20130;-81
2021/07/10 02:15:19;;;;;;;41.60;30.95;;;;;;;14.34;100.00;101392.47;4959842;28;20047;-80
2021/07/10 02:17:46;;;;;;;38.72;27.98;;;;;;;14.33;100.00;101385.41;4957791;28;20077;-80
2021/07/10 02:20:16;;;;;;;37.78;28.25;;;;;;;14.32;100.00;101384.53;4973812;28;20042;-81
2021/07/10 02:22:42;;;;;;;37.45;28.42;;;;;;;14.30;100.00;101381.19;4958752;28;20043;-80
2021/07/10 02:25:10;;;;;;;36.53;27.27;;;;;;;14.29;100.00;101384.06;4944844;28;20050;-81
2021/07/10 02:27:36;;;;;;;33.90;26.30;;;;;;;14.15;100.00;101385.63;4941028;28;20054;-80
2021/07/10 02:30:07;;;;;;;30.10;24.98;;;;;;;14.07;100.00;101383.78;4938812;29;20051;-80
2021/07/10 02:32:33;;;;;;;32.40;25.27;;;;;;;14.08;100.00;101382.78;4922301;28;20054;-80
2021/07/10 02:34:59;;;;;;;32.70;25.80;;;;;;;14.06;100.00;101378.56;4961759;28;20055;-80
2021/07/10 02:37:25;;;;;;;31.73;25.67;;;;;;;14.04;100.00;101378.75;4959318;28;20132;-80
2021/07/10 02:39:50;;;;;;;31.13;26.13;;;;;;;14.04;100.00;101375.19;4958604;28;20055;-80
2021/07/10 02:42:16;;;;;;;33.05;26.25;;;;;;;14.02;100.00;101375.38;4937436;28;20073;-81
2021/07/10 02:44:41;;;;;;;34.33;27.63;;;;;;;14.00;100.00;101375.53;4928100;28;20134;-81
2021/07/10 02:47:07;;;;;;;34.55;26.17;;;;;;;13.99;100.00;101371.16;4940737;28;20047;-81
2021/07/10 02:49:32;;;;;;;34.30;25.88;;;;;;;13.88;100.00;101368.81;4961723;28;20121;-80
2021/07/10 02:51:58;;;;;;;28.33;25.13;;;;;;;13.83;100.00;101367.66;4960665;28;20174;-80
2021/07/10 02:54:23;;;;;;;30.65;25.77;;;;;;;13.81;100.00;101366.97;4943646;28;20518;-81
2021/07/10 02:56:49;;;;;;;30.60;24.95;;;;;;;13.82;100.00;101363.28;4944488;28;20046;-81
2021/07/10 02:59:14;;;;;;;28.88;24.60;;;;;;;13.81;100.00;101365.13;4954707;28;20046;-80
2021/07/10 03:01:39;;;;;;;30.80;24.77;;;;;;;13.82;100.00;101357.88;4960248;28;20061;-81
2021/07/10 03:04:05;;;;;;;29.67;24.83;;;;;;;13.79;100.00;101359.06;4942061;28;21047;-80
2021/07/10 03:06:30;;;;;;;28.58;24.23;;;;;;;13.76;100.00;101360.25;4943787;28;20051;-81
2021/07/10 03:08:55;;;;;;;30.05;24.08;;;;;;;13.72;100.00;101368.84;4961431;28;20472;-80
2021/07/10 03:11:21;;;;;;;26.90;23.38;;;;;;;13.70;100.00;101371.72;4929852;28;20051;-81
2021/07/10 03:13:46;;;;;;;30.83;23.90;;;;;;;13.70;100.00;101369.03;4937907;28;20051;-80
2021/07/10 03:16:12;;;;;;;29.40;24.85;;;;;;;13.71;100.00;101362.59;4943162;28;20050;-80
2021/07/10 03:18:37;;;;;;;36.03;27.08;;;;;;;13.81;100.00;101353.47;4959999;28;20039;-81
2021/07/10 03:21:03;;;;;;;36.40;27.80;;;;;;;13.83;100.00;101344.22;4943073;28;20117;-80
2021/07/10 03:23:28;;;;;;;34.65;26.58;;;;;;;13.80;100.00;101352.66;4960189;28;20077;-80
2021/07/10 03:25:54;;;;;;;33.47;26.10;;;;;;;13.77;100.00;101350.28;4961359;28;20047;-80
2021/07/10 03:28:19;;;;;;;32.72;25.63;;;;;;;13.75;100.00;101342.38;4957238;28;20074;-80
2021/07/10 03:30:50;;;;;;;28.95;23.58;;;;;;;13.72;100.00;101337.34;4937855;28;20049;-80
2021/07/10 03:33:16;;;;;;;35.40;24.08;;;;;;;13.71;100.00;101332.09;4961107;28;20051;-80
2021/07/10 03:35:44;;;;;;;38.88;28.33;;;;;;;13.73;100.00;101339.00;4957226;28;20059;-80
2021/07/10 03:38:09;;;;;;;48.53;32.42;;;;;;;13.74;100.00;101329.06;4927250;28;20049;-80
2021/07/10 03:40:36;;;;;;;52.78;34.67;;;;;;;13.74;100.00;101329.91;4940608;28;20040;-80
2021/07/10 03:43:01;;;;;;;52.25;36.22;;;;;;;13.76;100.00;101330.56;4929565;28;20055;-80
2021/07/10 03:45:27;;;;;;;54.60;38.25;;;;;;;13.76;100.00;101332.44;4933132;28;20054;-80
2021/07/10 03:47:52;;;;;;;52.08;34.47;;;;;;;13.81;100.00;101321.13;4926896;28;20113;-80
2021/07/10 03:50:18;;;;;;;46.63;33.35;;;;;;;13.80;100.00;101327.53;4922975;28;20043;-80
2021/07/10 03:52:44;;;;;;;44.35;32.42;;;;;;;13.79;100.00;101331.25;4958764;28;20051;-80
2021/07/10 03:55:11;;;;;;;46.25;33.35;;;;;;;13.79;100.00;101332.09;4958043;28;20569;-80
2021/07/10 03:57:37;;;;;;;50.55;35.92;;;;;;;13.85;100.00;101334.09;4964932;28;20043;-80
2021/07/10 04:00:09;;;;;;;53.28;39.58;;;;;;;13.93;100.00;101331.38;4947527;28;20388;-80
2021/07/10 04:02:34;;;;;;;52.85;36.55;;;;;;;13.98;100.00;101331.72;4943474;28;20053;-80
2021/07/10 04:04:59;;;;;;;57.67;38.05;;;;;;;13.97;100.00;101337.25;4965323;28;20051;-80
2021/07/10 04:07:26;;;;;;;59.80;39.28;;;;;;;13.98;100.00;101330.84;4944571;28;20042;-80
2021/07/10 04:09:51;;;;;;;63.42;40.17;;;;;;;13.97;100.00;101330.00;4943035;29;20444;-81
2021/07/10 04:12:17;;;;;;;64.40;39.72;;;;;;;13.95;100.00;101332.06;4942493;28;20066;-80
2021/07/10 04:14:42;;;;;;;63.15;40.22;;;;;;;13.99;100.00;101332.53;4946159;28;20139;-81
2021/07/10 04:17:08;;;;;;;63.97;39.17;;;;;;;13.97;100.00;101331.88;4937319;29;20051;-81
2021/07/10 04:19:33;;;;;;;68.97;43.00;;;;;;;13.98;100.00;101325.44;4925982;29;20039;-81
2021/07/10 04:21:59;;;;;;;67.63;41.20;;;;;;;13.99;100.00;101332.53;4937738;28;20523;-80
2021/07/10 04:24:25;;;;;;;69.93;43.60;;;;;;;14.03;100.00;101327.63;4939579;28;20058;-80
2021/07/10 04:26:51;;;;;;;72.15;43.22;;;;;;;14.03;100.00;101328.47;4947971;28;20460;-81
2021/07/10 04:29:17;;;;;;;68.82;46.55;;;;;;;14.10;100.00;101329.47;4940534;29;20047;-81
2021/07/10 04:31:42;;;;;;;71.90;44.33;;;;;;;14.11;100.00;101327.63;4943679;28;20078;-80
2021/07/10 04:34:08;;;;;;;65.47;44.88;;;;;;;14.09;100.00;101327.78;4945805;29;20043;-80
2021/07/10 04:36:33;;;;;;;65.28;43.63;;;;;;;14.09;100.00;101319.69;4954244;28;20489;-82
2021/07/10 04:38:58;;;;;;;68.05;44.03;;;;;;;14.13;100.00;101329.13;4966076;28;20129;-79
2021/07/10 04:41:24;;;;;;;69.03;46.13;;;;;;;14.16;100.00;101317.97;4961497;28;20055;-80
2021/07/10 04:43:49;;;;;;;65.55;43.72;;;;;;;14.18;100.00;101321.34;4957280;28;20043;-81
2021/07/10 04:46:15;;;;;;;65.63;43.72;;;;;;;14.19;100.00;101325.72;4962956;28;20089;-80
2021/07/10 04:48:40;;;;;;;72.50;46.88;;;;;;;14.22;100.00;101317.28;4962282;28;20066;-81
2021/07/10 04:51:06;;;;;;;73.35;46.92;;;;;;;14.28;100.00;101320.28;4945202;28;20047;-80
2021/07/10 04:53:31;;;;;;;82.68;51.03;;;;;;;14.32;100.00;101322.44;4962135;28;20050;-80
2021/07/10 04:55:57;;;;;;;82.63;51.17;;;;;;;14.33;100.00;101324.16;4962076;28;20050;-81
2021/07/10 04:58:24;;;;;;;90.72;53.30;;;;;;;14.37;100.00;101325.47;4960647;28;20043;-81
2021/07/10 05:00:50;;;;;;;97.60;55.75;;;;;;;14.41;100.00;101329.53;4960340;28;20051;-80
2021/07/10 05:03:16;;;;;;;107.32;54.58;;;;;;;14.39;100.00;101328.84;4937824;28;20035;-80
2021/07/10 05:05:42;;;;;;;117.88;60.75;;;;;;;14.48;100.00;101331.50;4947475;28;20075;-80
2021/07/10 05:08:08;;;;;;;133.40;63.70;;;;;;;14.55;100.00;101332.50;4946068;28;20527;-80
2021/07/10 05:10:35;;;;;;;139.05;64.28;;;;;;;14.55;100.00;101333.34;4961274;28;20388;-80
2021/07/10 05:13:00;;;;;;;156.07;66.63;;;;;;;14.57;100.00;101331.31;4943624;28;20063;-81
2021/07/10 05:15:26;;;;;;;146.73;66.70;;;;;;;14.61;100.00;101327.22;4961009;28;20253;-80
2021/07/10 05:17:52;;;;;;;157.82;71.63;;;;;;;14.70;100.00;101324.47;4961585;28;20599;-80
2021/07/10 05:20:17;;;;;;;137.35;68.53;;;;;;;14.73;100.00;101324.97;4943346;28;20145;-80
2021/07/10 05:22:43;;;;;;;158.25;74.78;;;;;;;14.78;100.00;101319.03;4962301;28;20138;-81
2021/07/10 05:25:10;;;;;;;145.00;69.97;;;;;;;14.78;100.00;101321.72;4944271;28;20046;-81
2021/07/10 05:27:36;;;;;;;160.65;69.40;;;;;;;14.79;100.00;101320.72;4955741;28;20522;-80
2021/07/10 05:30:06;;;;;;;176.07;82.65;;;;;;;14.88;100.00;101325.03;4960741;28;20039;-81
2021/07/10 05:32:32;;;;;;;218.00;83.85;;;;;;;14.83;100.00;101325.56;4962586;28;20047;-81
2021/07/10 05:34:57;;;;;;;176.43;77.20;;;;;;;14.81;100.00;101319.50;4931451;28;20031;-81
2021/07/10 05:37:22;;;;;;;189.32;78.55;;;;;;;14.90;100.00;101317.59;4952386;28;20074;-81
2021/07/10 05:39:48;;;;;;;189.32;74.85;;;;;;;14.85;100.00;101306.50;4962653;28;20065;-82
2021/07/10 05:42:13;;;;;;;178.77;76.30;;;;;;;14.88;100.00;101300.72;4958029;28;20089;-80
2021/07/10 05:44:39;;;;;;;211.13;83.15;;;;;;;14.88;100.00;101303.44;4942511;28;20062;-80
2021/07/10 05:47:04;;;;;;;242.65;80.03;;;;;;;14.93;100.00;101311.81;4923101;29;20054;-80
2021/07/10 05:49:32;;;;;;;226.73;81.07;;;;;;;14.95;100.00;101306.25;4945184;28;20496;-80
2021/07/10 05:51:57;;;;;;;208.20;84.60;;;;;;;15.01;100.00;101306.34;4953808;28;20056;-81
2021/07/10 05:54:23;;;;;;;166.85;79.32;;;;;;;15.08;100.00;101306.50;4932033;29;20122;-81
2021/07/10 05:56:48;;;;;;;192.27;79.30;;;;;;;15.10;100.00;101307.13;4934685;28;20070;-81
2021/07/10 05:59:13;;;;;;;179.32;80.50;;;;;;;15.12;100.00;101308.63;4934704;29;20488;-81
2021/07/10 06:01:39;;;;;;;234.85;87.72;;;;;;;15.14;100.00;101313.03;4950707;28;20049;-81
2021/07/10 06:04:04;;;;;;;213.00;87.63;;;;;;;15.26;100.00;101308.88;4949044;28;20054;-80
2021/07/10 06:06:29;;;;;;;187.52;84.65;;;;;;;15.27;100.00;101311.38;4969661;28;20487;-81
2021/07/10 06:08:55;;;;;;;169.43;77.70;;;;;;;15.26;100.00;101309.69;4947441;28;20031;-80
2021/07/10 06:11:20;;;;;;;183.60;78.00;;;;;;;15.30;100.00;101311.00;4950358;28;20043;-81
2021/07/10 06:13:45;;;;;;;169.25;78.78;;;;;;;15.39;100.00;101306.34;4949000;28;20054;-80
2021/07/10 06:16:11;;;;;;;162.77;77.43;;;;;;;15.52;100.00;101306.59;4948271;28;20750;-80
2021/07/10 06:18:37;;;;;;;156.85;74.57;;;;;;;15.49;100.00;101312.38;4949073;28;20035;-80
2021/07/10 06:21:02;;;;;;;150.68;73.45;;;;;;;15.54;100.00;101304.53;4965664;28;20035;-81
2021/07/10 06:23:27;;;;;;;157.57;77.78;;;;;;;15.68;100.00;101304.75;4965270;28;20057;-82
2021/07/10 06:25:53;;;;;;;148.77;73.05;;;;;;;15.75;100.00;101309.25;4956486;28;20447;-80
2021/07/10 06:28:21;;;;;;;139.93;69.32;;;;;;;15.81;100.00;101301.41;4931399;28;20055;-82
2021/07/10 06:30:47;;;;;;;130.85;69.50;;;;;;;15.88;100.00;101308.63;4939643;28;20062;-81
2021/07/10 06:33:12;;;;;;;137.38;70.90;;;;;;;16.00;100.00;101306.28;4914625;28;20043;-81
2021/07/10 06:35:38;;;;;;;123.30;65.07;;;;;;;16.01;100.00;101307.94;4940817;28;20074;-82
2021/07/10 06:38:03;;;;;;;131.95;70.95;;;;;;;16.13;100.00;101305.59;4937855;29;20250;-80
2021/07/10 06:40:30;;;;;;;133.98;72.13;;;;;;;16.32;100.00;101312.31;4923811;29;20047;-81
2021/07/10 06:42:55;;;;;;;111.28;64.38;;;;;;;16.44;100.00;101303.50;4926312;28;20082;-81
2021/07/10 06:45:21;;;;;;;110.10;66.15;;;;;;;16.51;100.00;101302.72;4908018;29;20440;-82
2021/07/10 06:47:48;;;;;;;113.35;65.05;;;;;;;16.64;100.00;101308.31;4917449;29;20054;-82
2021/07/10 06:50:16;;;;;;;103.55;61.95;;;;;;;16.69;100.00;101316.72;4954921;28;20074;-81
2021/07/10 06:52:41;;;;;;;92.10;56.17;;;;;;;16.66;100.00;101304.38;4952619;28;20045;-82
2021/07/10 06:55:09;;;;;;;87.05;53.88;;;;;;;16.70;100.00;101307.53;4957298;28;20118;-81
2021/07/10 06:57:37;;;;;;;91.38;54.38;;;;;;;16.82;100.00;101303.31;4941024;28;20047;-81
2021/07/10 07:00:06;;;;;;;87.28;54.42;;;;;;;16.97;100.00;101302.41;4940037;28;20939;-81
2021/07/10 07:02:33;;;;;;;80.78;50.78;;;;;;;17.04;100.00;101304.16;4958400;28;20685;-81
2021/07/10 07:04:58;;;;;;;75.20;48.80;;;;;;;17.17;100.00;101306.16;4940092;28;20095;-81
2021/07/10 07:07:24;;;;;;;72.15;48.25;;;;;;;17.30;100.00;101305.44;4916573;28;20432;-82
2021/07/10 07:09:49;;;;;;;69.90;47.90;;;;;;;17.35;100.00;101301.09;4960349;28;20051;-82
2021/07/10 07:12:14;;;;;;;65.82;44.47;;;;;;;17.41;100.00;101298.63;4959637;28;20503;-82
2021/07/10 07:14:40;;;;;;;64.03;43.42;;;;;;;17.48;100.00;101294.91;4963824;28;20050;-81
2021/07/10 07:17:05;;;;;;;57.15;39.33;;;;;;;17.55;100.00;101290.41;4965689;28;20141;-82
2021/07/10 07:19:31;;;;;;;51.58;36.97;;;;;;;17.58;100.00;101290.00;4957184;28;20133;-81
2021/07/10 07:21:57;;;;;;;52.70;35.17;;;;;;;17.68;100.00;101288.81;4959747;28;20053;-83
2021/07/10 07:24:23;;;;;;;47.13;36.95;;;;;;;17.86;100.00;101300.00;4957859;28;20050;-82
2021/07/10 07:26:49;;;;;;;30.50;23.00;;;;;;;17.81;93.36;101303.34;4953612;28;20491;-81
2021/07/10 07:29:14;;;;;;;38.38;28.75;;;;;;;17.89;92.92;101302.31;4958018;28;20031;-82
2021/07/10 07:31:40;;;;;;;38.35;28.23;;;;;;;17.95;93.46;101297.97;4939379;28;20059;-82
2021/07/10 07:34:05;;;;;;;37.03;27.73;;;;;;;18.00;93.02;101296.31;4959455;28;20051;-83
2021/07/10 07:36:31;;;;;;;35.92;26.40;;;;;;;18.03;90.93;101297.78;4942090;28;20400;-80
2021/07/10 07:38:56;;;;;;;35.33;25.10;;;;;;;18.08;89.48;101295.31;4955211;28;21144;-81
2021/07/10 07:41:21;;;;;;;36.38;27.00;;;;;;;18.19;91.99;101286.59;4957064;28;20451;-81
2021/07/10 07:43:47;;;;;;;34.90;26.00;;;;;;;18.26;90.60;101292.88;4960406;28;20051;-83
2021/07/10 07:46:13;;;;;;;37.53;27.02;;;;;;;18.38;90.79;101286.88;4956743;28;20046;-82
2021/07/10 07:48:42;;;;;;;36.88;25.60;;;;;;;18.43;88.37;101287.09;4959641;28;20046;-81
2021/07/10 07:51:07;;;;;;;32.78;24.27;;;;;;;18.51;88.18;101291.53;4953811;28;20047;-82
2021/07/10 07:53:33;;;;;;;33.08;25.55;;;;;;;18.58;88.18;101292.38;4955960;28;20045;-82
2021/07/10 07:55:58;;;;;;;33.85;25.45;;;;;;;18.63;86.96;101295.31;4941487;28;20051;-80
2021/07/10 07:58:26;;;;;;;37.28;26.98;;;;;;;18.77;91.47;101293.50;4934282;28;20083;-82
2021/07/10 08:00:52;;;;;;;32.97;24.13;;;;;;;18.65;85.71;101285.91;4946995;28;20530;-81
2021/07/10 08:03:17;;;;;;;32.72;25.92;;;;;;;18.76;87.86;101291.81;4961053;28;20093;-81
2021/07/10 08:05:42;;;;;;;35.17;26.13;;;;;;;18.82;86.92;101286.41;4941851;28;20477;-83
2021/07/10 08:08:08;;;;;;;35.10;25.98;;;;;;;18.91;89.60;101289.75;4961090;28;20533;-80
2021/07/10 08:10:33;;;;;;;35.92;26.85;;;;;;;18.95;86.79;101280.13;4940821;28;20031;-83
2021/07/10 08:12:59;;;;;;;33.78;25.90;;;;;;;19.00;87.29;101280.34;4971789;28;20404;-81
2021/07/10 08:15:24;;;;;;;33.00;25.83;;;;;;;19.07;86.92;101275.75;4953548;28;20123;-81
2021/07/10 08:17:51;;;;;;;34.50;26.15;;;;;;;19.15;87.48;101282.88;4967907;28;20620;-81
2021/07/10 08:20:17;;;;;;;36.90;27.58;;;;;;;19.27;87.97;101280.34;4951751;28;20039;-82
2021/07/10 08:22:44;;;;;;;35.00;25.05;;;;;;;19.32;87.31;101272.41;4958921;28;20051;-82
2021/07/10 08:25:12;;;;;;;33.17;23.83;;;;;;;19.22;83.81;101275.56;4964565;28;20042;-81
2021/07/10 08:27:43;;;;;;;32.53;25.45;;;;;;;19.38;86.72;101260.66;4960387;28;20054;-82
2021/07/10 08:30:09;;;;;;;30.08;24.30;;;;;;;19.41;84.63;101262.97;4946598;28;20484;-82
2021/07/10 08:32:36;;;;;;;32.13;24.15;;;;;;;19.55;84.57;101261.91;4942187;28;20051;-83
2021/07/10 08:35:02;;;;;;;32.63;24.98;;;;;;;19.70;86.63;101261.69;4956997;28;20130;-82
2021/07/10 08:37:27;;;;;;;30.58;22.15;;;;;;;19.71;83.06;101260.66;4957822;28;20555;-82
2021/07/10 08:39:52;;;;;;;29.35;21.00;;;;;;;19.70;79.43;101255.41;4941641;28;20047;-82
2021/07/10 08:42:18;;;;;;;30.55;22.48;;;;;;;19.81;81.85;101252.03;4960494;28;20046;-82
2021/07/10 08:44:50;;;;;;;29.77;21.80;;;;;;;19.96;83.49;101251.75;4957796;28;20484;-83
2021/07/10 08:47:16;;;;;;;31.08;22.85;;;;;;;20.01;82.39;101251.97;4942180;28;20121;-83
2021/07/10 08:49:43;;;;;;;32.72;23.52;;;;;;;20.03;81.46;101247.97;4962973;28;20034;-82
2021/07/10 08:52:08;;;;;;;30.80;21.02;;;;;;;20.09;78.97;101259.91;4974134;28;20043;-82
2021/07/10 08:54:35;;;;;;;29.20;20.77;;;;;;;20.08;79.43;101262.81;4969186;28;20109;-82
2021/07/10 08:57:00;;;;;;;28.15;21.73;;;;;;;20.05;79.82;101259.50;4947842;28;20042;-83
2021/07/10 08:59:26;;;;;;;29.50;23.13;;;;;;;20.07;80.01;101256.53;4964904;28;20110;-82
2021/07/10 09:01:53;;;;;;;32.80;23.48;;;;;;;19.97;78.56;101250.75;4967884;28;20504;-82
2021/07/10 09:04:25;;;;;;;27.42;19.67;;;;;;;20.02;78.89;101254.50;4965256;28;20397;-82
2021/07/10 09:06:51;;;;;;;22.48;17.23;;;;;;;20.15;76.69;101250.84;4959640;28;20043;-82
2021/07/10 09:09:17;;;;;;;23.92;17.98;;;;;;;20.26;78.40;101241.19;4966844;28;20045;-82
2021/07/10 09:11:59;;;;;;;29.80;21.15;;;;;;;20.31;78.07;101252.22;4964079;28;20076;-82
2021/07/10 09:14:29;;;;;;;27.75;20.60;;;;;;;20.38;78.49;101236.69;4959142;28;20150;-82
2021/07/10 09:16:55;;;;;;;26.17;18.85;;;;;;;20.39;77.39;101238.34;4956406;28;20043;-82
2021/07/10 09:19:24;;;;;;;22.02;16.08;;;;;;;20.41;76.23;101240.88;4948772;28;20124;-82
2021/07/10 09:21:52;;;;;;;20.30;16.60;;;;;;;20.31;74.93;101233.16;4937710;28;20084;-83
2021/07/10 09:24:32;;;;;;;21.80;16.48;;;;;;;20.26;74.25;101235.72;4958715;28;20720;-81
2021/07/10 09:27:01;;;;;;;23.65;17.00;;;;;;;20.29;74.54;101238.84;4949533;28;20061;-82
2021/07/10 09:29:29;;;;;;;21.60;17.33;;;;;;;20.46;75.67;101233.72;4957498;28;20520;-83
2021/07/10 09:31:55;;;;;;;24.23;19.33;;;;;;;20.59;76.02;101226.53;4930730;28;20068;-84
2021/07/10 09:34:27;;;;;;;23.92;16.80;;;;;;;20.56;73.34;101226.97;4963918;28;20050;-83
2021/07/10 09:36:59;;;;;;;24.70;18.80;;;;;;;20.61;71.84;101232.63;4950716;28;20050;-87
2021/07/10 09:39:36;;;;;;;21.73;17.00;;;;;;;20.58;72.79;101227.59;4946540;28;20098;-81
2021/07/10 09:42:02;;;;;;;25.05;17.77;;;;;;;20.67;73.99;101218.09;4961326;28;20805;-83
2021/07/10 09:44:45;;;;;;;22.60;17.10;;;;;;;20.85;72.25;101220.06;4959159;28;20046;-82
2021/07/10 09:47:13;;;;;;;20.92;16.92;;;;;;;20.88;71.91;101214.97;4956042;28;20139;-84
2021/07/10 09:49:39;;;;;;;19.65;15.88;;;;;;;20.92;72.97;101220.84;4942148;28;20043;-83
2021/07/10 09:52:07;;;;;;;21.27;16.80;;;;;;;20.95;70.31;101223.13;4958717;28;20046;-82
2021/07/10 09:54:38;;;;;;;18.03;14.73;;;;;;;21.08;72.53;101214.81;4959313;28;20094;-81
2021/07/10 09:57:10;;;;;;;18.67;14.63;;;;;;;21.07;70.34;101224.06;4945249;28;20290;-81
2021/07/10 10:00:07;;;;;;;17.80;13.88;;;;;;;21.11;70.43;101227.19;4935893;28;20077;-81
2021/07/10 10:02:42;;;;;;;16.45;13.90;;;;;;;21.06;70.05;101213.38;4940645;28;20039;-83
2021/07/10 10:05:12;;;;;;;16.90;13.90;;;;;;;21.05;70.16;101217.16;4931813;29;20044;-81
2021/07/10 10:07:53;;;;;;;20.95;14.82;;;;;;;21.12;70.74;101220.69;4936585;28;20044;-80
2021/07/10 10:10:32;;;;;;;17.27;13.77;;;;;;;21.24;70.68;101218.06;4940830;28;20113;-81
2021/07/10 10:13:09;;;;;;;18.92;14.35;;;;;;;21.18;70.87;101217.06;4927997;29;20045;-82
2021/07/10 10:15:44;;;;;;;19.60;15.25;;;;;;;21.23;71.13;101217.19;4922304;29;20047;-84
2021/07/10 10:18:11;;;;;;;21.60;15.43;;;;;;;21.17;69.11;101210.72;4924103;29;20162;-84
2021/07/10 10:20:37;;;;;;;20.45;15.45;;;;;;;21.18;70.64;101209.69;4939990;28;20047;-83
2021/07/10 10:23:05;;;;;;;21.63;16.65;;;;;;;21.37;72.16;101201.56;4940677;29;20053;-83
2021/07/10 10:25:31;;;;;;;19.45;15.35;;;;;;;21.43;69.66;101210.75;4938693;28;20036;-84
2021/07/10 10:27:56;;;;;;;18.13;14.18;;;;;;;21.55;70.35;101208.91;4930938;29;20078;-85
2021/07/10 10:30:25;;;;;;;19.15;15.32;;;;;;;21.63;71.47;101211.34;4923264;29;20543;-83
2021/07/10 10:32:51;;;;;;;20.52;16.60;;;;;;;21.78;70.32;101213.69;4916302;29;20313;-83
2021/07/10 10:35:18;;;;;;;22.08;16.33;;;;;;;21.67;70.58;101209.84;4904099;29;20138;-82
2021/07/10 10:37:45;;;;;;;20.88;15.63;;;;;;;21.81;70.97;101202.34;4939154;28;20051;-82
2021/07/10 10:40:14;;;;;;;22.58;17.08;;;;;;;21.85;69.58;101198.91;4933318;28;20047;-82
2021/07/10 10:42:42;;;;;;;21.08;17.73;;;;;;;21.85;68.56;101198.91;4948046;28;20039;-82
2021/07/10 10:45:08;;;;;;;21.27;16.48;;;;;;;21.95;67.11;101192.06;4941186;28;20039;-82
2021/07/10 10:47:42;;;;;;;20.90;17.38;;;;;;;21.97;68.81;101198.13;4925664;28;20051;-84
2021/07/10 10:50:25;;;;;;;23.75;18.60;;;;;;;22.07;69.30;101191.06;4911451;29;20073;-85
2021/07/10 10:52:53;;;;;;;22.88;19.08;;;;;;;22.06;68.05;101196.75;4937391;28;20317;-82
2021/07/10 10:55:27;;;;;;;21.55;17.13;;;;;;;22.05;69.13;101193.19;4921814;29;20039;-85
2021/07/10 10:57:58;;;;;;;20.75;15.57;;;;;;;21.81;66.17;101197.72;4945458;28;20050;-85
2021/07/10 11:00:23;;;;;;;14.57;11.80;;;;;;;21.65;65.66;101187.38;4960870;28;20070;-82
2021/07/10 11:02:48;;;;;;;17.50;13.15;;;;;;;;;;4962546;28;20101;-84